sensor_id;sensor_type;location;lat;lon;timestamp;P1;durP1;ratioP1;P2;durP2;ratioP2
2119;SDS011;1066;52.540;13.420;2023-04-15T00:00:11;20.97;;;18.80;;
2119;SDS011;1066;52.540;13.420;2023-04-15T00:02:36;21.17;;;18.77;;
2119;SDS011;1066;52.540;13.420;2023-04-15T00:05:02;19.73;;;17.73;;
2119;SDS011;1066;52.540;13.420;2023-04-15T00:07:28;18.13;;;16.33;;
2119;SDS011;1066;52.540;13.420;2023-04-15T00:09:53;19.33;;;17.53;;
2119;SDS011;1066;52.540;13.420;2023-04-15T00:12:20;19.80;;;17.70;;
2119;SDS011;1066;52.540;13.420;2023-04-15T00:14:45;20.57;;;18.40;;
2119;SDS011;1066;52.540;13.420;2023-04-15T00:17:11;20.73;;;18.53;;
2119;SDS011;1066;52.540;13.420;2023-04-15T00:19:36;24.87;;;20.40;;
2119;SDS011;1066;52.540;13.420;2023-04-15T00:22:02;21.23;;;18.90;;
2119;SDS011;1066;52.540;13.420;2023-04-15T00:24:27;20.00;;;18.07;;
2119;SDS011;1066;52.540;13.420;2023-04-15T00:26:53;20.77;;;18.67;;
2119;SDS011;1066;52.540;13.420;2023-04-15T00:29:18;20.87;;;18.73;;
2119;SDS011;1066;52.540;13.420;2023-04-15T00:31:43;20.23;;;18.20;;
2119;SDS011;1066;52.540;13.420;2023-04-15T00:34:08;23.00;;;20.47;;
2119;SDS011;1066;52.540;13.420;2023-04-15T00:36:34;21.50;;;19.17;;
2119;SDS011;1066;52.540;13.420;2023-04-15T00:39:00;24.13;;;20.17;;
2119;SDS011;1066;52.540;13.420;2023-04-15T00:41:26;23.47;;;20.70;;
2119;SDS011;1066;52.540;13.420;2023-04-15T00:43:51;22.07;;;19.60;;
2119;SDS011;1066;52.540;13.420;2023-04-15T00:46:17;21.00;;;18.87;;
2119;SDS011;1066;52.540;13.420;2023-04-15T00:48:44;23.27;;;20.63;;
2119;SDS011;1066;52.540;13.420;2023-04-15T00:51:11;23.10;;;20.60;;
2119;SDS011;1066;52.540;13.420;2023-04-15T00:53:37;23.23;;;20.73;;
2119;SDS011;1066;52.540;13.420;2023-04-15T00:56:02;22.43;;;20.03;;
2119;SDS011;1066;52.540;13.420;2023-04-15T00:58:27;22.87;;;20.37;;
2119;SDS011;1066;52.540;13.420;2023-04-15T01:00:53;24.20;;;21.23;;
2119;SDS011;1066;52.540;13.420;2023-04-15T01:03:19;23.20;;;20.13;;
2119;SDS011;1066;52.540;13.420;2023-04-15T01:05:44;30.33;;;23.20;;
2119;SDS011;1066;52.540;13.420;2023-04-15T01:08:10;25.70;;;22.90;;
2119;SDS011;1066;52.540;13.420;2023-04-15T01:10:35;25.30;;;22.60;;
2119;SDS011;1066;52.540;13.420;2023-04-15T01:13:01;25.10;;;22.50;;
2119;SDS011;1066;52.540;13.420;2023-04-15T01:15:27;25.70;;;23.00;;
2119;SDS011;1066;52.540;13.420;2023-04-15T01:17:52;26.50;;;21.80;;
2119;SDS011;1066;52.540;13.420;2023-04-15T01:20:17;25.53;;;22.70;;
2119;SDS011;1066;52.540;13.420;2023-04-15T01:22:42;24.90;;;21.10;;
2119;SDS011;1066;52.540;13.420;2023-04-15T01:27:33;27.43;;;23.17;;
2119;SDS011;1066;52.540;13.420;2023-04-15T01:29:59;25.23;;;21.90;;
2119;SDS011;1066;52.540;13.420;2023-04-15T01:32:25;26.80;;;22.57;;
2119;SDS011;1066;52.540;13.420;2023-04-15T01:34:51;27.70;;;23.73;;
2119;SDS011;1066;52.540;13.420;2023-04-15T01:37:16;30.03;;;25.00;;
2119;SDS011;1066;52.540;13.420;2023-04-15T01:39:41;24.90;;;21.10;;
2119;SDS011;1066;52.540;13.420;2023-04-15T01:42:06;26.00;;;21.90;;
2119;SDS011;1066;52.540;13.420;2023-04-15T01:44:31;25.77;;;21.97;;
2119;SDS011;1066;52.540;13.420;2023-04-15T01:46:57;27.97;;;22.83;;
2119;SDS011;1066;52.540;13.420;2023-04-15T01:49:22;26.13;;;22.13;;
2119;SDS011;1066;52.540;13.420;2023-04-15T01:51:47;33.83;;;25.80;;
2119;SDS011;1066;52.540;13.420;2023-04-15T01:54:13;27.77;;;23.37;;
2119;SDS011;1066;52.540;13.420;2023-04-15T01:56:38;24.60;;;22.00;;
2119;SDS011;1066;52.540;13.420;2023-04-15T01:59:03;27.70;;;23.07;;
2119;SDS011;1066;52.540;13.420;2023-04-15T02:01:28;26.20;;;22.20;;
2119;SDS011;1066;52.540;13.420;2023-04-15T02:03:54;24.70;;;22.10;;
2119;SDS011;1066;52.540;13.420;2023-04-15T02:06:19;29.57;;;22.20;;
2119;SDS011;1066;52.540;13.420;2023-04-15T02:08:44;27.53;;;22.60;;
2119;SDS011;1066;52.540;13.420;2023-04-15T02:11:10;26.57;;;23.33;;
2119;SDS011;1066;52.540;13.420;2023-04-15T02:13:35;29.83;;;24.97;;
2119;SDS011;1066;52.540;13.420;2023-04-15T02:16:01;27.97;;;23.87;;
2119;SDS011;1066;52.540;13.420;2023-04-15T02:18:26;28.30;;;22.67;;
2119;SDS011;1066;52.540;13.420;2023-04-15T02:20:52;27.83;;;23.60;;
2119;SDS011;1066;52.540;13.420;2023-04-15T02:23:17;27.77;;;22.87;;
2119;SDS011;1066;52.540;13.420;2023-04-15T02:25:42;24.47;;;21.87;;
2119;SDS011;1066;52.540;13.420;2023-04-15T02:28:07;27.90;;;23.37;;
2119;SDS011;1066;52.540;13.420;2023-04-15T02:30:32;25.60;;;20.33;;
2119;SDS011;1066;52.540;13.420;2023-04-15T02:32:58;29.90;;;22.47;;
2119;SDS011;1066;52.540;13.420;2023-04-15T02:35:24;31.03;;;23.37;;
2119;SDS011;1066;52.540;13.420;2023-04-15T02:37:49;24.77;;;21.27;;
2119;SDS011;1066;52.540;13.420;2023-04-15T02:40:15;30.17;;;24.07;;
2119;SDS011;1066;52.540;13.420;2023-04-15T02:42:41;28.97;;;22.57;;
2119;SDS011;1066;52.540;13.420;2023-04-15T02:45:07;28.37;;;22.37;;
2119;SDS011;1066;52.540;13.420;2023-04-15T02:47:33;32.30;;;24.53;;
2119;SDS011;1066;52.540;13.420;2023-04-15T02:49:58;29.10;;;22.50;;
2119;SDS011;1066;52.540;13.420;2023-04-15T02:52:25;27.13;;;22.67;;
2119;SDS011;1066;52.540;13.420;2023-04-15T02:54:50;26.93;;;22.53;;
2119;SDS011;1066;52.540;13.420;2023-04-15T02:57:16;26.73;;;22.63;;
2119;SDS011;1066;52.540;13.420;2023-04-15T02:59:41;27.23;;;23.57;;
2119;SDS011;1066;52.540;13.420;2023-04-15T03:02:06;27.83;;;24.30;;
2119;SDS011;1066;52.540;13.420;2023-04-15T03:04:32;25.33;;;22.10;;
2119;SDS011;1066;52.540;13.420;2023-04-15T03:06:57;26.90;;;22.37;;
2119;SDS011;1066;52.540;13.420;2023-04-15T03:09:22;26.07;;;22.03;;
2119;SDS011;1066;52.540;13.420;2023-04-15T03:11:48;25.70;;;22.10;;
2119;SDS011;1066;52.540;13.420;2023-04-15T03:14:13;26.30;;;21.53;;
2119;SDS011;1066;52.540;13.420;2023-04-15T03:16:38;25.27;;;20.60;;
2119;SDS011;1066;52.540;13.420;2023-04-15T03:19:03;27.10;;;20.90;;
2119;SDS011;1066;52.540;13.420;2023-04-15T03:21:29;24.40;;;21.27;;
2119;SDS011;1066;52.540;13.420;2023-04-15T03:23:54;26.60;;;22.47;;
2119;SDS011;1066;52.540;13.420;2023-04-15T03:26:25;25.33;;;21.23;;
2119;SDS011;1066;52.540;13.420;2023-04-15T03:28:51;27.07;;;21.93;;
2119;SDS011;1066;52.540;13.420;2023-04-15T03:31:16;25.87;;;22.40;;
2119;SDS011;1066;52.540;13.420;2023-04-15T03:33:41;26.53;;;21.80;;
2119;SDS011;1066;52.540;13.420;2023-04-15T03:36:06;23.47;;;21.07;;
2119;SDS011;1066;52.540;13.420;2023-04-15T03:38:31;30.30;;;26.23;;
2119;SDS011;1066;52.540;13.420;2023-04-15T03:40:57;25.67;;;22.40;;
2119;SDS011;1066;52.540;13.420;2023-04-15T03:43:22;23.20;;;20.70;;
2119;SDS011;1066;52.540;13.420;2023-04-15T03:45:47;26.03;;;20.93;;
2119;SDS011;1066;52.540;13.420;2023-04-15T03:48:12;23.73;;;20.70;;
2119;SDS011;1066;52.540;13.420;2023-04-15T03:50:37;24.03;;;20.90;;
2119;SDS011;1066;52.540;13.420;2023-04-15T03:53:03;24.93;;;20.90;;
2119;SDS011;1066;52.540;13.420;2023-04-15T03:55:28;23.20;;;19.07;;
2119;SDS011;1066;52.540;13.420;2023-04-15T03:57:53;24.40;;;20.80;;
2119;SDS011;1066;52.540;13.420;2023-04-15T04:00:18;27.17;;;20.00;;
2119;SDS011;1066;52.540;13.420;2023-04-15T04:02:44;27.17;;;20.50;;
2119;SDS011;1066;52.540;13.420;2023-04-15T04:05:09;24.37;;;20.43;;
2119;SDS011;1066;52.540;13.420;2023-04-15T04:07:35;28.00;;;20.97;;
2119;SDS011;1066;52.540;13.420;2023-04-15T04:10:01;22.97;;;20.40;;
2119;SDS011;1066;52.540;13.420;2023-04-15T04:12:27;21.90;;;18.70;;
2119;SDS011;1066;52.540;13.420;2023-04-15T04:14:52;24.80;;;21.60;;
2119;SDS011;1066;52.540;13.420;2023-04-15T04:17:18;22.63;;;19.10;;
2119;SDS011;1066;52.540;13.420;2023-04-15T04:19:43;24.07;;;21.57;;
2119;SDS011;1066;52.540;13.420;2023-04-15T04:22:08;21.07;;;18.73;;
2119;SDS011;1066;52.540;13.420;2023-04-15T04:24:34;23.43;;;20.63;;
2119;SDS011;1066;52.540;13.420;2023-04-15T04:26:59;22.90;;;20.17;;
2119;SDS011;1066;52.540;13.420;2023-04-15T04:29:25;21.07;;;18.87;;
2119;SDS011;1066;52.540;13.420;2023-04-15T04:31:50;20.33;;;18.20;;
2119;SDS011;1066;52.540;13.420;2023-04-15T04:34:16;21.57;;;19.30;;
2119;SDS011;1066;52.540;13.420;2023-04-15T04:36:41;21.53;;;19.00;;
2119;SDS011;1066;52.540;13.420;2023-04-15T04:39:06;21.53;;;18.93;;
2119;SDS011;1066;52.540;13.420;2023-04-15T04:41:31;21.97;;;19.70;;
2119;SDS011;1066;52.540;13.420;2023-04-15T04:43:57;20.97;;;18.77;;
2119;SDS011;1066;52.540;13.420;2023-04-15T04:46:22;21.30;;;19.10;;
2119;SDS011;1066;52.540;13.420;2023-04-15T04:48:47;26.00;;;19.87;;
2119;SDS011;1066;52.540;13.420;2023-04-15T04:51:13;21.13;;;18.73;;
2119;SDS011;1066;52.540;13.420;2023-04-15T04:53:38;19.40;;;17.23;;
2119;SDS011;1066;52.540;13.420;2023-04-15T04:56:03;20.63;;;18.60;;
2119;SDS011;1066;52.540;13.420;2023-04-15T04:58:28;20.63;;;18.57;;
2119;SDS011;1066;52.540;13.420;2023-04-15T05:00:54;22.67;;;19.17;;
2119;SDS011;1066;52.540;13.420;2023-04-15T05:03:20;21.80;;;18.23;;
2119;SDS011;1066;52.540;13.420;2023-04-15T05:05:45;21.13;;;18.50;;
2119;SDS011;1066;52.540;13.420;2023-04-15T05:08:11;24.40;;;19.80;;
2119;SDS011;1066;52.540;13.420;2023-04-15T05:10:36;21.60;;;19.30;;
2119;SDS011;1066;52.540;13.420;2023-04-15T05:13:01;19.53;;;17.53;;
2119;SDS011;1066;52.540;13.420;2023-04-15T05:15:27;19.40;;;16.63;;
2119;SDS011;1066;52.540;13.420;2023-04-15T05:17:52;18.50;;;16.27;;
2119;SDS011;1066;52.540;13.420;2023-04-15T05:20:17;17.67;;;15.87;;
2119;SDS011;1066;52.540;13.420;2023-04-15T05:22:42;18.57;;;16.57;;
2119;SDS011;1066;52.540;13.420;2023-04-15T05:25:07;18.90;;;16.87;;
2119;SDS011;1066;52.540;13.420;2023-04-15T05:27:33;18.63;;;16.73;;
2119;SDS011;1066;52.540;13.420;2023-04-15T05:29:58;18.73;;;16.93;;
2119;SDS011;1066;52.540;13.420;2023-04-15T05:32:24;18.17;;;16.37;;
2119;SDS011;1066;52.540;13.420;2023-04-15T05:34:49;19.47;;;17.57;;
2119;SDS011;1066;52.540;13.420;2023-04-15T05:37:14;17.37;;;15.20;;
2119;SDS011;1066;52.540;13.420;2023-04-15T05:39:40;15.20;;;13.70;;
2119;SDS011;1066;52.540;13.420;2023-04-15T05:42:06;19.80;;;17.27;;
2119;SDS011;1066;52.540;13.420;2023-04-15T05:44:31;17.00;;;15.20;;
2119;SDS011;1066;52.540;13.420;2023-04-15T05:46:56;18.20;;;14.90;;
2119;SDS011;1066;52.540;13.420;2023-04-15T05:49:22;16.90;;;15.17;;
2119;SDS011;1066;52.540;13.420;2023-04-15T05:51:47;16.37;;;14.77;;
2119;SDS011;1066;52.540;13.420;2023-04-15T05:54:12;15.77;;;14.17;;
2119;SDS011;1066;52.540;13.420;2023-04-15T05:56:37;17.63;;;15.07;;
2119;SDS011;1066;52.540;13.420;2023-04-15T05:59:03;17.17;;;14.30;;
2119;SDS011;1066;52.540;13.420;2023-04-15T06:01:28;15.80;;;14.30;;
2119;SDS011;1066;52.540;13.420;2023-04-15T06:03:53;15.73;;;14.13;;
2119;SDS011;1066;52.540;13.420;2023-04-15T06:06:18;14.80;;;13.40;;
2119;SDS011;1066;52.540;13.420;2023-04-15T06:08:44;15.50;;;13.90;;
2119;SDS011;1066;52.540;13.420;2023-04-15T06:11:10;14.53;;;13.13;;
2119;SDS011;1066;52.540;13.420;2023-04-15T06:13:35;15.70;;;14.10;;
2119;SDS011;1066;52.540;13.420;2023-04-15T06:16:00;20.07;;;13.67;;
2119;SDS011;1066;52.540;13.420;2023-04-15T06:18:26;15.50;;;13.90;;
2119;SDS011;1066;52.540;13.420;2023-04-15T06:20:51;15.57;;;14.17;;
2119;SDS011;1066;52.540;13.420;2023-04-15T06:23:16;13.30;;;12.00;;
2119;SDS011;1066;52.540;13.420;2023-04-15T06:25:41;14.27;;;12.87;;
2119;SDS011;1066;52.540;13.420;2023-04-15T06:28:06;15.20;;;13.60;;
2119;SDS011;1066;52.540;13.420;2023-04-15T06:30:32;15.03;;;13.50;;
2119;SDS011;1066;52.540;13.420;2023-04-15T06:32:57;15.43;;;13.03;;
2119;SDS011;1066;52.540;13.420;2023-04-15T06:35:22;13.20;;;11.97;;
2119;SDS011;1066;52.540;13.420;2023-04-15T06:37:48;14.40;;;13.00;;
2119;SDS011;1066;52.540;13.420;2023-04-15T06:40:13;14.00;;;12.50;;
2119;SDS011;1066;52.540;13.420;2023-04-15T06:42:38;13.77;;;12.47;;
2119;SDS011;1066;52.540;13.420;2023-04-15T06:45:04;13.70;;;12.40;;
2119;SDS011;1066;52.540;13.420;2023-04-15T06:47:29;12.30;;;11.30;;
2119;SDS011;1066;52.540;13.420;2023-04-15T06:49:54;12.03;;;10.83;;
2119;SDS011;1066;52.540;13.420;2023-04-15T06:52:19;12.50;;;11.43;;
2119;SDS011;1066;52.540;13.420;2023-04-15T06:54:45;11.90;;;10.80;;
2119;SDS011;1066;52.540;13.420;2023-04-15T06:57:10;11.70;;;10.47;;
2119;SDS011;1066;52.540;13.420;2023-04-15T06:59:35;12.50;;;10.93;;
2119;SDS011;1066;52.540;13.420;2023-04-15T07:02:00;11.50;;;10.40;;
2119;SDS011;1066;52.540;13.420;2023-04-15T07:04:26;10.53;;;9.53;;
2119;SDS011;1066;52.540;13.420;2023-04-15T07:06:52;11.27;;;10.17;;
2119;SDS011;1066;52.540;13.420;2023-04-15T07:09:17;10.90;;;9.90;;
2119;SDS011;1066;52.540;13.420;2023-04-15T07:11:43;13.00;;;10.10;;
2119;SDS011;1066;52.540;13.420;2023-04-15T07:14:09;12.33;;;11.13;;
2119;SDS011;1066;52.540;13.420;2023-04-15T07:16:34;11.70;;;10.60;;
2119;SDS011;1066;52.540;13.420;2023-04-15T07:18:59;11.90;;;10.80;;
2119;SDS011;1066;52.540;13.420;2023-04-15T07:21:24;12.30;;;11.10;;
2119;SDS011;1066;52.540;13.420;2023-04-15T07:23:51;13.60;;;11.87;;
2119;SDS011;1066;52.540;13.420;2023-04-15T07:26:16;11.93;;;10.70;;
2119;SDS011;1066;52.540;13.420;2023-04-15T07:28:41;12.50;;;11.27;;
2119;SDS011;1066;52.540;13.420;2023-04-15T07:31:07;12.90;;;11.70;;
2119;SDS011;1066;52.540;13.420;2023-04-15T07:33:32;11.60;;;10.60;;
2119;SDS011;1066;52.540;13.420;2023-04-15T07:35:57;11.30;;;10.20;;
2119;SDS011;1066;52.540;13.420;2023-04-15T07:38:23;11.83;;;10.73;;
2119;SDS011;1066;52.540;13.420;2023-04-15T07:40:48;12.10;;;10.80;;
2119;SDS011;1066;52.540;13.420;2023-04-15T07:43:13;12.33;;;11.17;;
2119;SDS011;1066;52.540;13.420;2023-04-15T07:45:39;13.07;;;10.43;;
2119;SDS011;1066;52.540;13.420;2023-04-15T07:48:04;11.73;;;10.43;;
2119;SDS011;1066;52.540;13.420;2023-04-15T07:50:30;13.13;;;11.97;;
2119;SDS011;1066;52.540;13.420;2023-04-15T07:52:55;11.50;;;10.50;;
2119;SDS011;1066;52.540;13.420;2023-04-15T07:55:21;13.23;;;11.97;;
2119;SDS011;1066;52.540;13.420;2023-04-15T07:57:47;12.90;;;11.57;;
2119;SDS011;1066;52.540;13.420;2023-04-15T08:00:13;12.13;;;11.13;;
2119;SDS011;1066;52.540;13.420;2023-04-15T08:02:38;13.77;;;12.37;;
2119;SDS011;1066;52.540;13.420;2023-04-15T08:05:03;14.50;;;13.00;;
2119;SDS011;1066;52.540;13.420;2023-04-15T08:07:29;11.90;;;10.83;;
2119;SDS011;1066;52.540;13.420;2023-04-15T08:09:55;13.67;;;12.27;;
2119;SDS011;1066;52.540;13.420;2023-04-15T08:12:20;12.53;;;11.43;;
2119;SDS011;1066;52.540;13.420;2023-04-15T08:14:46;13.30;;;11.90;;
2119;SDS011;1066;52.540;13.420;2023-04-15T08:17:11;13.37;;;12.07;;
2119;SDS011;1066;52.540;13.420;2023-04-15T08:19:36;13.97;;;12.50;;
2119;SDS011;1066;52.540;13.420;2023-04-15T08:22:01;12.13;;;11.00;;
2119;SDS011;1066;52.540;13.420;2023-04-15T08:24:27;14.60;;;13.30;;
2119;SDS011;1066;52.540;13.420;2023-04-15T08:26:52;13.87;;;12.47;;
2119;SDS011;1066;52.540;13.420;2023-04-15T08:29:17;12.43;;;11.23;;
2119;SDS011;1066;52.540;13.420;2023-04-15T08:31:43;12.00;;;10.80;;
2119;SDS011;1066;52.540;13.420;2023-04-15T08:34:08;14.23;;;12.83;;
2119;SDS011;1066;52.540;13.420;2023-04-15T08:36:35;13.47;;;12.17;;
2119;SDS011;1066;52.540;13.420;2023-04-15T08:39:00;13.47;;;12.17;;
2119;SDS011;1066;52.540;13.420;2023-04-15T08:41:26;15.30;;;13.80;;
2119;SDS011;1066;52.540;13.420;2023-04-15T08:43:56;14.07;;;12.80;;
2119;SDS011;1066;52.540;13.420;2023-04-15T08:46:21;13.47;;;12.27;;
2119;SDS011;1066;52.540;13.420;2023-04-15T08:48:47;17.37;;;15.57;;
2119;SDS011;1066;52.540;13.420;2023-04-15T08:51:12;20.83;;;13.40;;
2119;SDS011;1066;52.540;13.420;2023-04-15T08:53:40;20.13;;;18.10;;
2119;SDS011;1066;52.540;13.420;2023-04-15T08:56:06;26.13;;;23.33;;
2119;SDS011;1066;52.540;13.420;2023-04-15T08:58:32;25.17;;;22.47;;
2119;SDS011;1066;52.540;13.420;2023-04-15T09:00:58;15.97;;;14.47;;
2119;SDS011;1066;52.540;13.420;2023-04-15T09:03:23;13.23;;;11.60;;
2119;SDS011;1066;52.540;13.420;2023-04-15T09:05:49;17.47;;;15.97;;
2119;SDS011;1066;52.540;13.420;2023-04-15T09:08:14;15.00;;;13.50;;
2119;SDS011;1066;52.540;13.420;2023-04-15T09:10:40;15.97;;;14.43;;
2119;SDS011;1066;52.540;13.420;2023-04-15T09:13:05;13.70;;;12.50;;
2119;SDS011;1066;52.540;13.420;2023-04-15T09:15:30;14.50;;;13.23;;
2119;SDS011;1066;52.540;13.420;2023-04-15T09:17:56;14.50;;;13.30;;
2119;SDS011;1066;52.540;13.420;2023-04-15T09:20:22;14.27;;;12.97;;
2119;SDS011;1066;52.540;13.420;2023-04-15T09:22:48;13.87;;;12.67;;
2119;SDS011;1066;52.540;13.420;2023-04-15T09:27:48;13.00;;;11.90;;
2119;SDS011;1066;52.540;13.420;2023-04-15T09:30:13;13.23;;;12.10;;
2119;SDS011;1066;52.540;13.420;2023-04-15T09:32:47;13.77;;;12.57;;
2119;SDS011;1066;52.540;13.420;2023-04-15T09:35:13;13.70;;;12.33;;
2119;SDS011;1066;52.540;13.420;2023-04-15T09:37:39;14.40;;;12.87;;
2119;SDS011;1066;52.540;13.420;2023-04-15T09:40:04;13.23;;;12.13;;
2119;SDS011;1066;52.540;13.420;2023-04-15T09:42:30;15.07;;;13.67;;
2119;SDS011;1066;52.540;13.420;2023-04-15T09:45:06;12.43;;;11.23;;
2119;SDS011;1066;52.540;13.420;2023-04-15T09:47:32;13.63;;;12.43;;
2119;SDS011;1066;52.540;13.420;2023-04-15T09:49:57;14.00;;;12.70;;
2119;SDS011;1066;52.540;13.420;2023-04-15T09:52:23;13.90;;;12.47;;
2119;SDS011;1066;52.540;13.420;2023-04-15T09:54:50;12.63;;;11.67;;
2119;SDS011;1066;52.540;13.420;2023-04-15T09:57:16;13.80;;;12.50;;
2119;SDS011;1066;52.540;13.420;2023-04-15T09:59:42;13.17;;;11.83;;
2119;SDS011;1066;52.540;13.420;2023-04-15T10:02:07;14.07;;;12.70;;
2119;SDS011;1066;52.540;13.420;2023-04-15T10:04:34;13.03;;;11.93;;
2119;SDS011;1066;52.540;13.420;2023-04-15T10:07:00;12.70;;;11.60;;
2119;SDS011;1066;52.540;13.420;2023-04-15T10:09:26;14.00;;;12.60;;
2119;SDS011;1066;52.540;13.420;2023-04-15T10:11:52;12.10;;;11.10;;
2119;SDS011;1066;52.540;13.420;2023-04-15T10:14:17;13.23;;;11.93;;
2119;SDS011;1066;52.540;13.420;2023-04-15T10:16:43;12.87;;;11.67;;
2119;SDS011;1066;52.540;13.420;2023-04-15T10:19:12;13.80;;;12.60;;
2119;SDS011;1066;52.540;13.420;2023-04-15T10:21:40;12.80;;;11.50;;
2119;SDS011;1066;52.540;13.420;2023-04-15T10:24:05;12.93;;;11.80;;
2119;SDS011;1066;52.540;13.420;2023-04-15T10:26:31;13.30;;;12.10;;
2119;SDS011;1066;52.540;13.420;2023-04-15T10:28:56;13.67;;;12.30;;
2119;SDS011;1066;52.540;13.420;2023-04-15T10:31:22;12.77;;;11.57;;
2119;SDS011;1066;52.540;13.420;2023-04-15T10:33:47;14.43;;;12.70;;
2119;SDS011;1066;52.540;13.420;2023-04-15T10:36:13;14.47;;;13.07;;
2119;SDS011;1066;52.540;13.420;2023-04-15T10:38:40;14.40;;;13.10;;
2119;SDS011;1066;52.540;13.420;2023-04-15T10:43:36;12.20;;;11.10;;
2119;SDS011;1066;52.540;13.420;2023-04-15T10:46:03;13.37;;;12.20;;
2119;SDS011;1066;52.540;13.420;2023-04-15T10:48:29;12.93;;;11.93;;
2119;SDS011;1066;52.540;13.420;2023-04-15T10:50:55;11.23;;;10.27;;
2119;SDS011;1066;52.540;13.420;2023-04-15T10:53:27;11.87;;;10.90;;
2119;SDS011;1066;52.540;13.420;2023-04-15T10:55:52;12.67;;;11.40;;
2119;SDS011;1066;52.540;13.420;2023-04-15T10:58:17;12.57;;;11.47;;
2119;SDS011;1066;52.540;13.420;2023-04-15T11:00:43;13.20;;;12.10;;
2119;SDS011;1066;52.540;13.420;2023-04-15T11:03:13;12.30;;;11.20;;
2119;SDS011;1066;52.540;13.420;2023-04-15T11:05:49;12.80;;;11.67;;
2119;SDS011;1066;52.540;13.420;2023-04-15T11:08:15;11.70;;;10.70;;
2119;SDS011;1066;52.540;13.420;2023-04-15T11:13:16;13.03;;;11.87;;
2119;SDS011;1066;52.540;13.420;2023-04-15T11:15:44;14.13;;;12.93;;
2119;SDS011;1066;52.540;13.420;2023-04-15T11:18:14;14.17;;;12.77;;
2119;SDS011;1066;52.540;13.420;2023-04-15T11:20:40;14.27;;;12.97;;
2119;SDS011;1066;52.540;13.420;2023-04-15T11:23:06;12.53;;;11.43;;
2119;SDS011;1066;52.540;13.420;2023-04-15T11:25:31;13.83;;;12.50;;
2119;SDS011;1066;52.540;13.420;2023-04-15T11:27:57;12.37;;;11.17;;
2119;SDS011;1066;52.540;13.420;2023-04-15T11:30:24;13.17;;;11.97;;
2119;SDS011;1066;52.540;13.420;2023-04-15T11:32:50;13.30;;;12.03;;
2119;SDS011;1066;52.540;13.420;2023-04-15T11:35:16;12.20;;;11.20;;
2119;SDS011;1066;52.540;13.420;2023-04-15T11:37:42;12.80;;;11.60;;
2119;SDS011;1066;52.540;13.420;2023-04-15T11:40:07;12.63;;;11.53;;
2119;SDS011;1066;52.540;13.420;2023-04-15T11:42:33;12.50;;;11.40;;
2119;SDS011;1066;52.540;13.420;2023-04-15T11:45:08;13.47;;;12.33;;
2119;SDS011;1066;52.540;13.420;2023-04-15T11:47:34;12.93;;;11.77;;
2119;SDS011;1066;52.540;13.420;2023-04-15T11:50:12;12.73;;;11.63;;
2119;SDS011;1066;52.540;13.420;2023-04-15T11:52:38;12.60;;;11.40;;
2119;SDS011;1066;52.540;13.420;2023-04-15T11:55:03;13.07;;;11.97;;
2119;SDS011;1066;52.540;13.420;2023-04-15T11:57:31;11.43;;;10.33;;
2119;SDS011;1066;52.540;13.420;2023-04-15T11:59:56;12.60;;;11.47;;
2119;SDS011;1066;52.540;13.420;2023-04-15T12:02:29;12.67;;;11.57;;
2119;SDS011;1066;52.540;13.420;2023-04-15T12:05:01;13.13;;;11.87;;
2119;SDS011;1066;52.540;13.420;2023-04-15T12:07:27;13.23;;;11.93;;
2119;SDS011;1066;52.540;13.420;2023-04-15T12:09:56;12.73;;;11.53;;
2119;SDS011;1066;52.540;13.420;2023-04-15T12:12:25;13.30;;;11.90;;
2119;SDS011;1066;52.540;13.420;2023-04-15T12:14:51;12.93;;;11.87;;
2119;SDS011;1066;52.540;13.420;2023-04-15T12:17:16;12.13;;;11.07;;
2119;SDS011;1066;52.540;13.420;2023-04-15T12:19:41;12.40;;;11.30;;
2119;SDS011;1066;52.540;13.420;2023-04-15T12:22:10;12.57;;;11.37;;
2119;SDS011;1066;52.540;13.420;2023-04-15T12:24:36;11.30;;;10.30;;
2119;SDS011;1066;52.540;13.420;2023-04-15T12:27:02;12.07;;;10.97;;
2119;SDS011;1066;52.540;13.420;2023-04-15T12:29:28;11.97;;;10.87;;
2119;SDS011;1066;52.540;13.420;2023-04-15T12:31:55;11.77;;;10.77;;
2119;SDS011;1066;52.540;13.420;2023-04-15T12:34:30;11.70;;;10.70;;
2119;SDS011;1066;52.540;13.420;2023-04-15T12:36:56;12.83;;;11.73;;
2119;SDS011;1066;52.540;13.420;2023-04-15T12:39:25;11.07;;;9.93;;
2119;SDS011;1066;52.540;13.420;2023-04-15T12:41:51;11.93;;;10.93;;
2119;SDS011;1066;52.540;13.420;2023-04-15T12:44:17;11.60;;;10.60;;
2119;SDS011;1066;52.540;13.420;2023-04-15T12:46:42;11.33;;;10.23;;
2119;SDS011;1066;52.540;13.420;2023-04-15T12:49:07;10.77;;;9.67;;
2119;SDS011;1066;52.540;13.420;2023-04-15T12:51:33;11.30;;;10.30;;
2119;SDS011;1066;52.540;13.420;2023-04-15T12:53:58;11.20;;;10.20;;
2119;SDS011;1066;52.540;13.420;2023-04-15T12:56:23;11.63;;;10.53;;
2119;SDS011;1066;52.540;13.420;2023-04-15T12:58:49;11.63;;;10.40;;
2119;SDS011;1066;52.540;13.420;2023-04-15T13:01:14;11.00;;;9.90;;
2119;SDS011;1066;52.540;13.420;2023-04-15T13:03:39;10.80;;;9.87;;
2119;SDS011;1066;52.540;13.420;2023-04-15T13:06:05;11.00;;;10.00;;
2119;SDS011;1066;52.540;13.420;2023-04-15T13:08:30;10.67;;;9.77;;
2119;SDS011;1066;52.540;13.420;2023-04-15T13:10:56;10.70;;;9.60;;
2119;SDS011;1066;52.540;13.420;2023-04-15T13:13:21;9.87;;;8.97;;
2119;SDS011;1066;52.540;13.420;2023-04-15T13:15:46;10.13;;;9.20;;
2119;SDS011;1066;52.540;13.420;2023-04-15T13:18:11;9.40;;;8.60;;
2119;SDS011;1066;52.540;13.420;2023-04-15T13:20:37;9.30;;;8.40;;
2119;SDS011;1066;52.540;13.420;2023-04-15T13:23:02;8.83;;;8.03;;
2119;SDS011;1066;52.540;13.420;2023-04-15T13:25:27;9.20;;;8.30;;
2119;SDS011;1066;52.540;13.420;2023-04-15T13:27:52;7.77;;;7.13;;
2119;SDS011;1066;52.540;13.420;2023-04-15T13:30:18;9.10;;;8.23;;
2119;SDS011;1066;52.540;13.420;2023-04-15T13:32:43;8.07;;;7.23;;
2119;SDS011;1066;52.540;13.420;2023-04-15T13:35:08;7.77;;;7.07;;
2119;SDS011;1066;52.540;13.420;2023-04-15T13:37:33;8.17;;;7.40;;
2119;SDS011;1066;52.540;13.420;2023-04-15T13:39:58;8.30;;;7.57;;
2119;SDS011;1066;52.540;13.420;2023-04-15T13:42:24;7.90;;;7.27;;
2119;SDS011;1066;52.540;13.420;2023-04-15T13:44:49;8.53;;;7.57;;
2119;SDS011;1066;52.540;13.420;2023-04-15T13:47:18;7.70;;;7.00;;
2119;SDS011;1066;52.540;13.420;2023-04-15T13:49:44;7.37;;;6.77;;
2119;SDS011;1066;52.540;13.420;2023-04-15T13:52:09;7.23;;;6.63;;
2119;SDS011;1066;52.540;13.420;2023-04-15T13:54:35;7.20;;;6.60;;
2119;SDS011;1066;52.540;13.420;2023-04-15T13:57:00;8.80;;;8.07;;
2119;SDS011;1066;52.540;13.420;2023-04-15T13:59:25;8.20;;;7.30;;
2119;SDS011;1066;52.540;13.420;2023-04-15T14:01:51;7.63;;;6.93;;
2119;SDS011;1066;52.540;13.420;2023-04-15T14:04:16;8.10;;;7.50;;
2119;SDS011;1066;52.540;13.420;2023-04-15T14:06:42;10.23;;;9.13;;
2119;SDS011;1066;52.540;13.420;2023-04-15T14:09:07;10.80;;;9.90;;
2119;SDS011;1066;52.540;13.420;2023-04-15T14:11:32;9.10;;;8.40;;
2119;SDS011;1066;52.540;13.420;2023-04-15T14:14:00;7.47;;;6.87;;
2119;SDS011;1066;52.540;13.420;2023-04-15T14:16:25;8.20;;;7.40;;
2119;SDS011;1066;52.540;13.420;2023-04-15T14:18:51;6.60;;;6.00;;
2119;SDS011;1066;52.540;13.420;2023-04-15T14:21:16;6.47;;;5.97;;
2119;SDS011;1066;52.540;13.420;2023-04-15T14:23:41;7.60;;;7.00;;
2119;SDS011;1066;52.540;13.420;2023-04-15T14:26:06;6.40;;;5.90;;
2119;SDS011;1066;52.540;13.420;2023-04-15T14:28:32;8.80;;;7.90;;
2119;SDS011;1066;52.540;13.420;2023-04-15T14:30:57;7.47;;;6.77;;
2119;SDS011;1066;52.540;13.420;2023-04-15T14:33:22;6.73;;;6.13;;
2119;SDS011;1066;52.540;13.420;2023-04-15T14:35:48;7.60;;;6.90;;
2119;SDS011;1066;52.540;13.420;2023-04-15T14:38:13;8.33;;;7.53;;